Time;durP1;ratioP1;P1;durP2;ratioP2;P2;SDS_P1;SDS_P2;PMS_P1;PMS_P2;Temp;Humidity;BMP_temperature;BMP_pressure;BME280_temperature;BME280_humidity;BME280_pressure;Samples;Min_cycle;Max_cycle;Signal;HPM_P1;HPM_P2
2023/03/31 00:01:47;;;;;;;20.77;4.13;;;11.30;99.90;;;;;;5054554;28;20045;-71
2023/03/31 00:04:13;;;;;;;21.65;3.33;;;11.30;99.90;;;;;;5037595;28;20033;-71
2023/03/31 00:06:40;;;;;;;20.45;4.45;;;11.30;99.90;;;;;;5054462;28;20082;-72
2023/03/31 00:09:17;;;;;;;14.27;2.90;;;11.30;99.90;;;;;;5071067;28;20116;-71
2023/03/31 00:11:44;;;;;;;19.23;2.75;;;11.30;99.90;;;;;;5054244;28;20505;-72
2023/03/31 00:14:10;;;;;;;17.48;3.47;;;11.40;99.90;;;;;;5055720;28;20032;-69
2023/03/31 00:16:37;;;;;;;18.83;2.90;;;11.40;99.90;;;;;;5054555;28;20401;-69
2023/03/31 00:19:03;;;;;;;16.08;3.42;;;11.40;99.90;;;;;;5037901;28;20435;-69
2023/03/31 00:21:32;;;;;;;18.73;3.13;;;11.40;99.90;;;;;;5037631;28;20041;-69
2023/03/31 00:24:05;;;;;;;15.25;3.40;;;11.40;99.90;;;;;;5058979;28;20040;-69
2023/03/31 00:26:31;;;;;;;20.92;4.50;;;11.30;99.90;;;;;;5074039;28;20072;-69
2023/03/31 00:28:58;;;;;;;17.55;3.97;;;11.30;99.90;;;;;;5057412;28;20504;-69
2023/03/31 00:31:25;;;;;;;15.95;3.13;;;11.30;99.90;;;;;;5072428;28;20080;-69
2023/03/31 00:33:51;;;;;;;19.67;2.60;;;11.30;99.90;;;;;;5073918;28;20041;-69
2023/03/31 00:36:20;;;;;;;15.88;3.22;;;11.30;99.90;;;;;;5053225;28;20047;-69
2023/03/31 00:38:50;;;;;;;20.25;3.60;;;11.30;99.90;;;;;;5037203;28;20037;-70
2023/03/31 00:41:16;;;;;;;19.35;3.30;;;11.30;99.90;;;;;;5037318;28;20045;-69
2023/03/31 00:44:07;;;;;;;16.38;2.75;;;11.30;99.90;;;;;;5053295;28;20052;-69
2023/03/31 00:46:36;;;;;;;20.30;3.70;;;11.30;99.90;;;;;;5070339;28;20076;-69
2023/03/31 00:49:02;;;;;;;14.43;2.45;;;11.30;99.90;;;;;;5046881;28;20083;-69
2023/03/31 00:51:32;;;;;;;19.15;3.10;;;11.20;99.90;;;;;;5053316;28;20048;-69
2023/03/31 00:54:03;;;;;;;15.45;3.45;;;11.20;99.90;;;;;;5058245;28;20040;-72
2023/03/31 00:56:34;;;;;;;17.23;2.92;;;11.20;99.90;;;;;;5073008;28;20443;-71
2023/03/31 00:59:03;;;;;;;13.20;3.08;;;11.20;99.90;;;;;;5040751;28;20041;-71
2023/03/31 01:01:30;;;;;;;15.82;3.75;;;11.10;99.90;;;;;;5052933;28;20041;-72
2023/03/31 01:03:58;;;;;;;16.30;3.03;;;11.00;99.90;;;;;;5052306;28;20489;-71
2023/03/31 01:06:24;;;;;;;14.32;2.65;;;11.00;99.90;;;;;;5036640;28;20041;-71
2023/03/31 01:08:51;;;;;;;17.55;3.28;;;10.90;99.90;;;;;;5062566;28;20065;-72
2023/03/31 01:11:19;;;;;;;13.75;2.80;;;10.90;99.90;;;;;;5073157;28;20051;-71
2023/03/31 01:13:49;;;;;;;18.88;3.55;;;10.90;99.90;;;;;;5072564;28;20054;-71
2023/03/31 01:16:16;;;;;;;18.88;3.58;;;10.90;99.90;;;;;;5053393;28;20036;-71
2023/03/31 01:18:45;;;;;;;19.27;2.78;;;10.80;99.90;;;;;;5073044;28;20043;-72
2023/03/31 01:21:32;;;;;;;16.73;2.72;;;10.80;99.90;;;;;;5070868;28;20499;-71
2023/03/31 01:24:24;;;;;;;14.55;2.83;;;10.80;99.90;;;;;;5073036;28;20047;-72
2023/03/31 01:27:08;;;;;;;22.13;3.25;;;10.70;99.90;;;;;;5056260;28;20045;-71
2023/03/31 01:29:49;;;;;;;13.73;2.78;;;10.70;99.90;;;;;;5052130;28;20501;-71
2023/03/31 01:32:40;;;;;;;17.15;2.67;;;10.70;99.90;;;;;;5052870;28;20489;-72
2023/03/31 01:35:30;;;;;;;19.25;2.97;;;10.60;99.90;;;;;;5036069;28;20086;-71
2023/03/31 01:38:34;;;;;;;14.15;2.33;;;10.60;99.90;;;;;;5037778;28;20077;-71
2023/03/31 01:41:25;;;;;;;19.35;3.60;;;10.60;99.90;;;;;;5056212;28;20381;-69
2023/03/31 01:43:53;;;;;;;19.95;3.60;;;10.50;99.90;;;;;;5068459;28;20393;-70
2023/03/31 01:46:39;;;;;;;15.70;2.63;;;10.50;99.90;;;;;;5067205;28;20044;-69
2023/03/31 01:49:09;;;;;;;18.52;3.95;;;10.50;99.90;;;;;;5072595;28;20044;-69
2023/03/31 01:51:54;;;;;;;22.02;3.50;;;10.50;99.90;;;;;;5055569;28;20084;-70
2023/03/31 01:54:38;;;;;;;16.58;3.60;;;10.40;99.90;;;;;;5063344;28;20045;-70
2023/03/31 01:57:22;;;;;;;14.18;2.50;;;10.40;99.90;;;;;;5052657;28;20409;-69
2023/03/31 02:00:12;;;;;;;15.60;3.40;;;10.40;99.90;;;;;;5051968;28;20497;-70
2023/03/31 02:03:04;;;;;;;17.33;3.10;;;10.50;99.90;;;;;;5068965;28;20570;-69
2023/03/31 02:05:36;;;;;;;13.70;2.50;;;10.40;99.90;;;;;;5035496;28;20045;-69
2023/03/31 02:08:06;;;;;;;19.55;2.92;;;10.50;99.90;;;;;;5062948;28;20048;-69
2023/03/31 02:10:34;;;;;;;16.30;3.17;;;10.40;99.90;;;;;;5072155;28;20044;-70
2023/03/31 02:13:01;;;;;;;16.23;3.30;;;10.40;99.90;;;;;;5071959;28;20033;-70
2023/03/31 02:15:37;;;;;;;19.48;2.65;;;10.40;99.90;;;;;;5069835;28;20403;-69
2023/03/31 02:18:09;;;;;;;14.65;2.67;;;10.30;99.90;;;;;;5072158;28;20485;-70
2023/03/31 02:20:40;;;;;;;16.30;3.20;;;10.30;99.90;;;;;;5051056;28;20548;-70
2023/03/31 02:23:09;;;;;;;12.73;2.53;;;10.30;99.90;;;;;;5051675;28;20047;-70
2023/03/31 02:25:45;;;;;;;17.63;3.92;;;10.30;99.90;;;;;;5069974;28;20040;-70
2023/03/31 02:28:17;;;;;;;14.52;2.55;;;10.30;99.90;;;;;;5055557;28;20457;-70
2023/03/31 02:31:22;;;;;;;17.08;2.90;;;10.20;99.90;;;;;;5072021;28;20405;-70
2023/03/31 02:33:48;;;;;;;19.58;4.35;;;10.30;99.90;;;;;;5054480;28;20079;-70
2023/03/31 02:36:14;;;;;;;12.18;3.00;;;10.30;99.90;;;;;;5070951;28;20107;-70
2023/03/31 02:38:50;;;;;;;17.50;3.42;;;10.30;99.90;;;;;;5055200;28;20044;-71
2023/03/31 02:41:15;;;;;;;16.00;2.80;;;10.30;99.90;;;;;;5064927;28;20098;-70
2023/03/31 02:43:41;;;;;;;12.27;2.58;;;10.30;99.90;;;;;;5052791;28;20513;-70
2023/03/31 02:46:07;;;;;;;18.67;3.20;;;10.30;99.90;;;;;;5063249;28;20040;-71
2023/03/31 02:48:38;;;;;;;14.63;2.83;;;10.30;99.90;;;;;;5051111;28;20049;-71
2023/03/31 02:51:07;;;;;;;12.27;2.58;;;10.30;99.90;;;;;;5051083;28;20049;-71
2023/03/31 02:53:56;;;;;;;14.18;3.40;;;10.30;99.90;;;;;;5034661;28;20110;-70
2023/03/31 02:56:46;;;;;;;15.63;2.72;;;10.30;99.90;;;;;;5050842;28;20091;-71
2023/03/31 02:59:36;;;;;;;13.68;2.65;;;10.30;99.90;;;;;;5041916;28;20037;-71
2023/03/31 03:02:09;;;;;;;13.98;3.10;;;10.30;99.90;;;;;;5071703;28;20044;-71
2023/03/31 03:04:41;;;;;;;14.77;3.10;;;10.30;99.90;;;;;;5053955;28;20106;-71
2023/03/31 03:07:21;;;;;;;13.68;3.15;;;10.30;99.90;;;;;;5071666;28;20033;-71
2023/03/31 03:10:01;;;;;;;16.83;3.05;;;10.30;99.90;;;;;;5066127;28;20040;-71
2023/03/31 03:13:09;;;;;;;16.00;3.45;;;10.20;99.90;;;;;;5043589;28;20041;-71
2023/03/31 03:16:04;;;;;;;13.00;2.78;;;10.20;99.90;;;;;;5040849;28;20045;-70
2023/03/31 03:18:30;;;;;;;11.07;2.40;;;10.20;99.90;;;;;;5053970;28;20044;-71
2023/03/31 03:20:56;;;;;;;15.10;3.10;;;10.20;99.90;;;;;;5034929;28;20559;-71
2023/03/31 03:23:22;;;;;;;14.60;2.58;;;10.30;99.90;;;;;;5051303;28;20040;-71
2023/03/31 03:25:47;;;;;;;12.88;3.60;;;10.30;99.90;;;;;;5035965;28;20409;-70
2023/03/31 03:28:13;;;;;;;17.13;3.55;;;10.30;99.90;;;;;;5053815;28;20401;-71
2023/03/31 03:30:39;;;;;;;14.57;3.97;;;10.30;99.90;;;;;;5054539;28;20040;-70
2023/03/31 03:33:05;;;;;;;13.48;3.72;;;10.30;99.90;;;;;;5061666;28;20043;-70
2023/03/31 03:35:32;;;;;;;14.93;3.83;;;10.30;99.90;;;;;;5048472;28;20386;-70
2023/03/31 03:37:58;;;;;;;13.45;2.70;;;10.30;99.90;;;;;;5050135;28;20115;-70
2023/03/31 03:40:24;;;;;;;14.27;3.08;;;10.30;99.90;;;;;;5060500;28;20522;-71
2023/03/31 03:42:50;;;;;;;11.48;3.25;;;10.30;99.90;;;;;;5070615;28;20033;-71
2023/03/31 03:45:15;;;;;;;13.75;3.63;;;10.40;99.90;;;;;;5065285;28;20040;-71
2023/03/31 03:47:41;;;;;;;12.55;3.30;;;10.40;99.90;;;;;;5052144;28;20040;-71
2023/03/31 03:50:07;;;;;;;9.18;3.10;;;10.40;99.90;;;;;;5083123;28;20555;-71
2023/03/31 03:52:33;;;;;;;10.85;3.35;;;10.40;99.90;;;;;;5059179;28;20041;-71
2023/03/31 03:55:00;;;;;;;8.75;2.97;;;10.50;99.90;;;;;;5052461;28;20120;-70
2023/03/31 03:57:26;;;;;;;12.93;4.20;;;10.50;99.90;;;;;;5055270;28;20090;-71
2023/03/31 03:59:51;;;;;;;12.88;3.45;;;10.50;99.90;;;;;;5067438;28;20049;-71
2023/03/31 04:02:17;;;;;;;10.30;3.00;;;10.50;99.90;;;;;;5072022;28;20037;-71
2023/03/31 04:04:43;;;;;;;9.85;3.70;;;10.50;99.90;;;;;;5053659;28;20091;-71
2023/03/31 04:07:08;;;;;;;12.57;3.08;;;10.50;99.90;;;;;;5054368;28;20037;-70
2023/03/31 04:09:34;;;;;;;9.38;3.80;;;10.50;99.90;;;;;;5072151;28;20055;-70
2023/03/31 04:12:00;;;;;;;9.85;3.15;;;10.60;99.90;;;;;;5074393;28;20033;-71
2023/03/31 04:14:25;;;;;;;13.95;3.40;;;10.60;99.90;;;;;;5052318;28;20041;-71
2023/03/31 04:16:51;;;;;;;12.82;3.28;;;10.70;99.90;;;;;;5053887;28;20033;-71
2023/03/31 04:19:16;;;;;;;10.30;3.15;;;10.70;99.90;;;;;;5069465;28;20047;-71
2023/03/31 04:21:49;;;;;;;10.90;3.38;;;10.70;99.90;;;;;;5057312;28;20052;-71
2023/03/31 04:24:20;;;;;;;8.95;2.95;;;10.60;99.90;;;;;;5068998;28;20091;-71
2023/03/31 04:26:49;;;;;;;10.25;3.45;;;10.70;99.90;;;;;;5037505;28;20485;-70
2023/03/31 04:29:15;;;;;;;8.55;3.05;;;10.70;99.90;;;;;;5064186;28;20086;-71
2023/03/31 04:31:41;;;;;;;10.25;3.53;;;10.70;99.90;;;;;;5061548;28;20045;-71
2023/03/31 04:34:12;;;;;;;11.85;3.45;;;10.60;99.90;;;;;;5066350;28;20059;-71
2023/03/31 04:36:45;;;;;;;9.95;3.20;;;10.60;99.90;;;;;;5056953;28;20404;-71
2023/03/31 04:39:13;;;;;;;9.90;3.05;;;10.70;99.90;;;;;;5062176;28;20041;-71
2023/03/31 04:41:38;;;;;;;10.38;3.25;;;10.70;99.90;;;;;;5070705;28;20051;-71
2023/03/31 04:44:04;;;;;;;9.07;2.72;;;10.60;99.90;;;;;;5051292;28;20033;-71
2023/03/31 04:46:31;;;;;;;11.32;3.65;;;10.60;99.90;;;;;;5055434;28;20378;-71
2023/03/31 04:48:58;;;;;;;9.43;3.17;;;10.60;99.90;;;;;;5073582;28;20084;-71
2023/03/31 04:51:23;;;;;;;9.63;3.25;;;10.60;99.90;;;;;;5070142;28;20048;-71
2023/03/31 04:53:49;;;;;;;10.43;3.35;;;10.60;99.90;;;;;;5066303;28;20033;-72
2023/03/31 04:56:15;;;;;;;9.20;3.45;;;10.60;99.90;;;;;;5046120;28;20028;-71
2023/03/31 04:58:40;;;;;;;10.38;3.75;;;10.60;99.90;;;;;;5069090;28;20032;-72
2023/03/31 05:01:06;;;;;;;9.48;3.60;;;10.60;99.90;;;;;;5043082;28;20058;-71
2023/03/31 05:03:31;;;;;;;13.15;3.30;;;10.50;99.90;;;;;;5069513;28;20048;-71
2023/03/31 05:05:57;;;;;;;11.48;3.80;;;10.50;99.90;;;;;;5052389;28;20044;-71
2023/03/31 05:08:23;;;;;;;12.23;3.63;;;10.50;99.90;;;;;;5048616;28;20032;-71
2023/03/31 05:10:48;;;;;;;12.18;3.65;;;10.50;99.90;;;;;;5044877;28;20029;-71
2023/03/31 05:13:17;;;;;;;11.00;3.30;;;10.50;99.90;;;;;;5061851;28;20037;-71
2023/03/31 05:15:44;;;;;;;9.40;2.95;;;10.50;99.90;;;;;;5069662;28;20066;-72
2023/03/31 05:18:10;;;;;;;13.70;3.90;;;10.50;99.90;;;;;;5073021;28;20072;-72
2023/03/31 05:20:35;;;;;;;13.45;3.40;;;10.50;99.90;;;;;;5052466;28;20068;-72
2023/03/31 05:23:01;;;;;;;9.85;2.95;;;10.50;99.90;;;;;;5050529;28;20469;-72
2023/03/31 05:25:31;;;;;;;9.05;2.83;;;10.50;99.90;;;;;;5072041;28;20397;-72
2023/03/31 05:27:58;;;;;;;10.82;2.90;;;10.50;99.90;;;;;;5071741;28;20089;-72
2023/03/31 05:30:25;;;;;;;9.07;2.55;;;10.50;99.90;;;;;;5051149;28;20477;-72
2023/03/31 05:32:51;;;;;;;9.90;3.05;;;10.60;99.90;;;;;;5065083;28;20076;-72
2023/03/31 05:35:16;;;;;;;11.90;3.05;;;10.60;99.90;;;;;;5071914;28;20080;-71
2023/03/31 05:37:42;;;;;;;9.70;2.72;;;10.60;99.90;;;;;;5065731;28;20064;-72
2023/03/31 05:40:09;;;;;;;9.23;3.22;;;10.60;99.90;;;;;;5051220;28;20538;-72
2023/03/31 05:42:35;;;;;;;7.03;2.38;;;10.70;99.90;;;;;;5057085;28;20056;-72
2023/03/31 05:45:01;;;;;;;9.25;2.40;;;10.70;99.90;;;;;;5052582;28;20029;-72
2023/03/31 05:47:27;;;;;;;11.70;3.38;;;10.70;99.90;;;;;;5039072;28;20508;-72
2023/03/31 05:49:52;;;;;;;9.07;2.20;;;10.70;99.90;;;;;;5051203;28;20067;-72
2023/03/31 05:52:18;;;;;;;7.10;2.05;;;10.80;99.90;;;;;;5064049;28;20041;-72
2023/03/31 05:54:44;;;;;;;9.90;2.55;;;10.80;99.90;;;;;;5042399;28;20037;-72
2023/03/31 05:57:10;;;;;;;7.35;2.50;;;10.80;99.90;;;;;;5052228;28;20044;-72
2023/03/31 05:59:37;;;;;;;8.73;4.00;;;10.80;99.90;;;;;;5050019;28;20047;-72
2023/03/31 06:02:03;;;;;;;9.93;4.40;;;10.80;99.90;;;;;;5040438;28;20029;-72
2023/03/31 06:04:30;;;;;;;8.15;3.53;;;10.80;99.90;;;;;;5049432;28;20032;-72
2023/03/31 06:06:56;;;;;;;11.45;3.40;;;10.80;99.90;;;;;;5072232;28;20086;-72
2023/03/31 06:09:23;;;;;;;8.85;2.97;;;10.80;99.90;;;;;;5070861;28;20032;-72
2023/03/31 06:11:48;;;;;;;10.23;3.33;;;10.80;99.90;;;;;;5057745;28;20041;-72
2023/03/31 06:14:14;;;;;;;7.93;3.17;;;10.80;99.90;;;;;;5066182;28;20036;-72
2023/03/31 06:16:40;;;;;;;6.38;2.50;;;10.70;99.90;;;;;;5064665;28;20381;-72
2023/03/31 06:19:05;;;;;;;9.45;2.95;;;10.80;99.90;;;;;;5054750;28;20033;-72
2023/03/31 06:21:31;;;;;;;8.65;2.55;;;10.80;99.90;;;;;;5042369;28;20098;-72
2023/03/31 06:23:57;;;;;;;8.73;2.80;;;10.80;99.90;;;;;;5057734;28;20123;-72
2023/03/31 06:26:23;;;;;;;9.75;2.90;;;10.80;99.90;;;;;;5051198;28;20044;-72
2023/03/31 06:28:49;;;;;;;7.80;2.60;;;10.80;99.90;;;;;;5040565;28;20040;-72
2023/03/31 06:31:17;;;;;;;6.93;1.73;;;10.70;99.90;;;;;;5054081;28;20036;-72
2023/03/31 06:33:43;;;;;;;8.00;2.30;;;10.70;99.90;;;;;;5068018;28;20045;-72
2023/03/31 06:36:11;;;;;;;8.93;2.38;;;10.80;99.90;;;;;;5051330;28;20064;-72
2023/03/31 06:38:38;;;;;;;9.77;2.50;;;10.80;99.90;;;;;;5054031;28;20484;-72
2023/03/31 06:41:05;;;;;;;7.25;2.20;;;10.80;99.90;;;;;;5057071;28;20086;-72
2023/03/31 06:43:31;;;;;;;6.75;2.40;;;10.80;99.90;;;;;;5064818;28;20464;-72
2023/03/31 06:45:56;;;;;;;6.45;2.33;;;10.80;99.90;;;;;;5055159;28;20071;-72
2023/03/31 06:48:24;;;;;;;9.23;2.67;;;10.70;99.90;;;;;;5070976;28;20040;-72
2023/03/31 06:50:50;;;;;;;7.35;2.15;;;10.70;99.90;;;;;;5074020;28;20064;-72
2023/03/31 06:53:15;;;;;;;8.45;2.30;;;10.70;99.90;;;;;;5055000;28;20032;-72
2023/03/31 06:55:41;;;;;;;8.25;2.45;;;10.70;99.90;;;;;;5071740;28;20033;-72
2023/03/31 06:58:06;;;;;;;5.65;2.38;;;10.60;99.90;;;;;;5049452;28;20408;-72
2023/03/31 07:00:33;;;;;;;6.75;2.15;;;10.70;99.90;;;;;;5052601;28;20489;-72
2023/03/31 07:02:58;;;;;;;15.20;5.78;;;10.80;99.90;;;;;;5055714;28;20052;-72
2023/03/31 07:05:27;;;;;;;15.18;5.85;;;10.80;99.90;;;;;;5055340;28;20037;-72
2023/03/31 07:07:58;;;;;;;14.43;5.13;;;10.70;99.90;;;;;;5055598;28;20091;-72
2023/03/31 07:10:26;;;;;;;14.85;4.63;;;10.70;99.90;;;;;;5055372;28;20520;-72
2023/03/31 07:12:51;;;;;;;15.73;5.68;;;10.70;99.90;;;;;;5038882;28;20119;-72
2023/03/31 07:15:17;;;;;;;10.68;2.75;;;10.80;99.90;;;;;;5067219;28;20154;-72
2023/03/31 07:17:43;;;;;;;12.85;3.95;;;10.70;99.90;;;;;;5073005;28;20036;-72
2023/03/31 07:20:11;;;;;;;13.18;3.42;;;10.70;99.90;;;;;;5056103;28;20047;-72
2023/03/31 07:22:40;;;;;;;10.57;3.75;;;10.80;99.90;;;;;;5038671;28;20045;-72
2023/03/31 07:25:07;;;;;;;12.00;3.75;;;10.70;99.90;;;;;;5068073;28;20086;-72
2023/03/31 07:27:32;;;;;;;10.30;3.30;;;10.70;99.90;;;;;;5058760;28;20043;-72
2023/03/31 07:29:58;;;;;;;10.93;3.50;;;10.70;99.90;;;;;;5054588;28;20116;-72
2023/03/31 07:32:23;;;;;;;20.33;6.65;;;10.70;99.90;;;;;;5067532;28;20095;-71
2023/03/31 07:34:49;;;;;;;21.52;6.72;;;10.70;99.90;;;;;;5061833;28;20396;-71
2023/03/31 07:37:14;;;;;;;19.85;6.72;;;10.60;99.90;;;;;;5056768;28;20029;-71
2023/03/31 07:39:40;;;;;;;14.02;5.28;;;10.60;99.90;;;;;;5055122;28;20094;-71
2023/03/31 07:42:06;;;;;;;11.80;4.00;;;10.60;99.90;;;;;;5061512;28;20044;-71
2023/03/31 07:44:33;;;;;;;7.28;2.70;;;10.60;99.90;;;;;;5073545;28;20036;-71
2023/03/31 07:47:03;;;;;;;8.57;2.92;;;10.60;99.90;;;;;;5053279;28;20056;-71
2023/03/31 07:49:29;;;;;;;8.07;2.60;;;10.70;99.90;;;;;;5054755;28;20033;-71
2023/03/31 07:51:55;;;;;;;8.25;3.13;;;10.60;99.90;;;;;;5038012;28;20068;-71
2023/03/31 07:54:20;;;;;;;7.97;2.55;;;10.70;99.90;;;;;;5059952;28;20044;-71
2023/03/31 07:56:46;;;;;;;7.78;2.53;;;10.70;99.90;;;;;;5054839;28;20516;-71
2023/03/31 07:59:12;;;;;;;9.65;2.50;;;10.80;99.90;;;;;;5038374;28;20036;-71
2023/03/31 08:01:37;;;;;;;8.18;2.60;;;10.80;99.90;;;;;;5047438;28;20036;-71
2023/03/31 08:04:03;;;;;;;9.50;2.92;;;10.80;99.90;;;;;;5066917;28;20413;-71
2023/03/31 08:06:28;;;;;;;6.95;2.78;;;10.80;99.90;;;;;;5055610;28;20041;-71
2023/03/31 08:08:55;;;;;;;6.32;2.17;;;10.80;99.90;;;;;;5043906;28;20037;-71
2023/03/31 08:11:21;;;;;;;6.88;1.92;;;10.70;99.90;;;;;;5057040;28;20033;-72
2023/03/31 08:13:46;;;;;;;8.65;2.00;;;10.80;99.90;;;;;;5054067;28;20176;-71
2023/03/31 08:16:12;;;;;;;6.82;1.98;;;10.70;99.90;;;;;;5070246;28;20033;-71
2023/03/31 08:18:38;;;;;;;5.70;2.13;;;10.70;99.90;;;;;;5062969;28;20037;-71
2023/03/31 08:21:03;;;;;;;6.90;2.00;;;10.70;99.90;;;;;;5074050;28;20123;-71
2023/03/31 08:23:29;;;;;;;9.20;2.40;;;10.70;99.90;;;;;;5051560;28;20094;-71
2023/03/31 08:26:05;;;;;;;6.28;1.95;;;10.80;99.90;;;;;;5071897;28;20043;-71
2023/03/31 08:28:30;;;;;;;7.93;2.20;;;10.80;99.90;;;;;;5055949;28;20435;-71
2023/03/31 08:31:03;;;;;;;6.80;2.28;;;10.80;99.90;;;;;;5071205;28;20102;-71
2023/03/31 08:33:28;;;;;;;8.32;1.92;;;10.80;99.90;;;;;;5046566;28;20051;-71
2023/03/31 08:35:54;;;;;;;7.63;2.15;;;10.90;99.90;;;;;;5054107;28;20033;-71
2023/03/31 08:38:20;;;;;;;9.60;2.85;;;11.00;99.90;;;;;;5057134;28;20036;-71
2023/03/31 08:40:45;;;;;;;8.98;2.13;;;11.00;99.90;;;;;;5068337;28;20511;-71
2023/03/31 08:43:17;;;;;;;7.60;2.22;;;10.90;99.90;;;;;;5071170;28;20098;-71
2023/03/31 08:45:46;;;;;;;8.65;2.33;;;10.90;99.90;;;;;;5088883;28;20048;-71
2023/03/31 08:48:24;;;;;;;6.00;2.13;;;10.90;99.90;;;;;;5042849;28;20094;-71
2023/03/31 08:51:04;;;;;;;7.38;2.72;;;10.90;99.90;;;;;;5056750;28;20064;-72
2023/03/31 08:53:44;;;;;;;9.73;2.17;;;10.90;99.90;;;;;;5062999;28;20074;-71
2023/03/31 08:56:18;;;;;;;9.85;2.35;;;10.90;99.90;;;;;;5060707;28;20154;-72
2023/03/31 08:58:46;;;;;;;6.47;2.10;;;10.90;99.90;;;;;;5053436;28;20032;-72
2023/03/31 09:01:21;;;;;;;9.57;2.35;;;10.90;99.90;;;;;;5055602;28;20076;-71
2023/03/31 09:04:10;;;;;;;8.02;2.35;;;10.90;99.90;;;;;;5051404;28;20124;-71
2023/03/31 09:06:42;;;;;;;10.65;2.47;;;10.90;99.90;;;;;;5056954;28;20037;-71
2023/03/31 09:09:43;;;;;;;9.30;2.53;;;10.90;99.90;;;;;;5049386;28;20090;-71
2023/03/31 09:12:19;;;;;;;9.90;2.50;;;11.00;99.90;;;;;;5070702;28;20047;-71
2023/03/31 09:15:05;;;;;;;9.10;2.28;;;10.90;99.90;;;;;;5051830;28;20036;-71
2023/03/31 09:17:37;;;;;;;5.53;2.17;;;11.00;99.90;;;;;;5068887;28;20497;-71
2023/03/31 09:20:15;;;;;;;6.07;2.53;;;11.00;99.90;;;;;;5063886;28;20098;-71
2023/03/31 09:22:51;;;;;;;8.05;2.03;;;11.10;99.90;;;;;;5065124;28;20403;-71
2023/03/31 09:25:22;;;;;;;8.38;3.15;;;11.10;99.90;;;;;;5057465;28;20123;-71
2023/03/31 09:27:51;;;;;;;8.68;2.83;;;11.10;99.90;;;;;;5055440;28;20032;-72
2023/03/31 09:30:23;;;;;;;7.25;2.13;;;11.10;99.90;;;;;;5051555;28;20090;-71
2023/03/31 09:32:52;;;;;;;;;;;11.20;99.90;;;;;;5067138;28;20485;-71
2023/03/31 09:35:27;;;;;;;7.70;2.20;;;11.20;99.90;;;;;;5071349;28;20372;-72
2023/03/31 09:37:53;;;;;;;10.13;2.40;;;11.30;99.90;;;;;;5070191;28;20040;-71
2023/03/31 09:40:21;;;;;;;8.15;2.40;;;11.20;99.90;;;;;;5052225;28;20097;-72
2023/03/31 09:42:54;;;;;;;8.60;2.22;;;11.30;99.90;;;;;;5057943;28;20412;-71
2023/03/31 09:45:20;;;;;;;8.35;2.45;;;11.30;99.90;;;;;;5046733;28;20048;-71
2023/03/31 09:48:00;;;;;;;10.38;2.58;;;11.30;99.90;;;;;;5050176;28;20489;-71
2023/03/31 09:50:26;;;;;;;8.25;2.30;;;11.40;99.90;;;;;;5052457;28;20432;-71
2023/03/31 09:52:55;;;;;;;6.45;2.40;;;11.40;99.90;;;;;;5064878;28;20040;-71
2023/03/31 09:55:42;;;;;;;9.68;2.35;;;11.40;99.90;;;;;;5051134;28;20435;-72
2023/03/31 09:58:12;;;;;;;7.10;2.10;;;11.40;99.90;;;;;;5052475;28;20083;-71
2023/03/31 10:00:41;;;;;;;6.97;2.10;;;11.40;99.90;;;;;;5048143;28;20036;-72
2023/03/31 10:03:09;;;;;;;8.90;2.20;;;11.50;99.90;;;;;;5052409;28;20047;-72
2023/03/31 10:05:48;;;;;;;7.20;2.95;;;11.60;99.90;;;;;;5044114;28;20041;-71
2023/03/31 10:08:20;;;;;;;8.13;2.38;;;11.50;99.90;;;;;;5053701;28;20051;-71
2023/03/31 10:10:47;;;;;;;5.20;1.80;;;11.50;99.90;;;;;;5066622;28;20064;-72
2023/03/31 10:13:17;;;;;;;5.80;2.25;;;11.50;99.90;;;;;;5048610;28;20112;-71
2023/03/31 10:15:44;;;;;;;6.05;1.67;;;11.60;99.90;;;;;;5046309;28;20036;-71
2023/03/31 10:18:14;;;;;;;6.68;1.83;;;11.60;99.90;;;;;;5057180;28;20493;-71
2023/03/31 10:20:47;;;;;;;6.03;1.75;;;11.70;99.90;;;;;;5047942;28;20144;-71
2023/03/31 10:23:23;;;;;;;7.45;1.83;;;11.70;99.90;;;;;;5097017;28;20028;-71
2023/03/31 10:25:50;;;;;;;6.50;1.75;;;11.80;99.90;;;;;;5051566;28;20047;-71
2023/03/31 10:28:18;;;;;;;4.95;1.50;;;11.80;99.90;;;;;;5058745;28;20040;-71
2023/03/31 10:31:01;;;;;;;5.18;1.30;;;11.70;99.90;;;;;;5050112;28;20041;-71
2023/03/31 10:33:30;;;;;;;2.70;1.20;;;11.80;99.90;;;;;;5045588;28;20037;-71
2023/03/31 10:36:25;;;;;;;4.22;1.40;;;11.80;99.90;;;;;;5055118;28;20489;-71
2023/03/31 10:38:51;;;;;;;5.90;1.33;;;11.80;99.90;;;;;;5052800;28;20398;-71
2023/03/31 10:41:24;;;;;;;4.22;1.40;;;11.80;99.90;;;;;;5051588;28;20077;-71
2023/03/31 10:43:55;;;;;;;6.18;1.52;;;11.80;99.90;;;;;;5035112;28;20067;-71
2023/03/31 10:46:37;;;;;;;5.65;1.55;;;11.80;99.90;;;;;;5048618;28;20435;-71
2023/03/31 10:49:22;;;;;;;4.45;1.40;;;11.90;99.90;;;;;;5070636;28;20042;-71
2023/03/31 10:51:56;;;;;;;4.95;1.77;;;11.90;99.90;;;;;;5058846;28;20131;-71
2023/03/31 10:54:22;;;;;;;4.03;1.60;;;11.90;99.90;;;;;;5052629;28;20705;-71
2023/03/31 10:56:51;;;;;;;8.80;1.90;;;11.90;99.90;;;;;;5070687;28;20039;-71
2023/03/31 10:59:29;;;;;;;6.50;1.90;;;12.10;99.90;;;;;;5047513;28;20037;-71
2023/03/31 11:02:21;;;;;;;5.30;1.80;;;12.10;99.90;;;;;;5045229;28;20507;-71
2023/03/31 11:04:56;;;;;;;8.77;1.90;;;12.20;99.90;;;;;;5035119;28;20049;-72
2023/03/31 11:07:45;;;;;;;7.72;2.13;;;12.30;99.90;;;;;;5057738;28;20051;-72
2023/03/31 11:10:39;;;;;;;4.63;1.60;;;12.40;99.90;;;;;;5050751;28;20093;-72
2023/03/31 11:13:19;;;;;;;9.15;3.08;;;12.50;99.90;;;;;;5050743;28;20033;-72
2023/03/31 11:15:54;;;;;;;8.27;2.45;;;12.60;99.90;;;;;;5064724;28;20044;-72
2023/03/31 11:18:35;;;;;;;3.92;1.67;;;12.60;99.90;;;;;;5049162;28;20044;-72
2023/03/31 11:21:29;;;;;;;5.03;1.83;;;12.70;99.90;;;;;;5058497;28;20044;-72
2023/03/31 11:24:31;;;;;;;4.43;1.75;;;12.60;99.90;;;;;;5056452;28;20076;-72
2023/03/31 11:27:17;;;;;;;6.67;1.97;;;12.70;99.90;;;;;;5055702;28;20166;-72
2023/03/31 11:29:52;;;;;;;5.82;1.60;;;12.90;99.90;;;;;;5068605;28;20044;-72
2023/03/31 11:32:53;;;;;;;7.57;1.95;;;12.90;99.90;;;;;;5049600;28;20040;-72
2023/03/31 11:35:37;;;;;;;5.03;2.10;;;13.00;99.90;;;;;;5067702;28;20430;-72
2023/03/31 11:38:14;;;;;;;6.85;1.83;;;13.00;99.90;;;;;;5046326;28;20489;-72
2023/03/31 11:41:01;;;;;;;6.10;1.45;;;12.90;99.90;;;;;;5051547;28;20037;-72
2023/03/31 11:43:35;;;;;;;3.67;1.33;;;12.90;99.90;;;;;;5037639;28;20041;-72
2023/03/31 11:46:08;;;;;;;3.58;1.20;;;12.90;99.90;;;;;;5050830;28;20527;-72
2023/03/31 11:48:44;;;;;;;3.85;1.42;;;12.90;99.90;;;;;;5057303;28;20528;-72
2023/03/31 11:51:22;;;;;;;6.88;1.88;;;12.90;99.90;;;;;;5057891;28;20056;-72
2023/03/31 11:53:51;;;;;;;3.55;1.33;;;13.00;99.90;;;;;;5056304;28;20037;-72
2023/03/31 11:56:17;;;;;;;4.55;1.50;;;13.10;99.90;;;;;;5055285;28;20089;-72
2023/03/31 11:58:55;;;;;;;4.00;1.75;;;13.00;99.90;;;;;;5056482;28;20496;-71
2023/03/31 12:01:37;;;;;;;6.50;1.95;;;13.00;99.90;;;;;;5051249;28;20515;-72
2023/03/31 12:04:32;;;;;;;4.43;1.70;;;12.90;99.90;;;;;;5056617;28;20094;-71
2023/03/31 12:07:22;;;;;;;6.80;1.80;;;12.90;99.90;;;;;;5038210;28;20401;-71
2023/03/31 12:10:21;;;;;;;5.68;1.63;;;12.90;99.90;;;;;;5037911;28;20044;-72
2023/03/31 12:13:04;;;;;;;8.90;2.28;;;13.00;99.90;;;;;;5054669;28;20049;-72
2023/03/31 12:15:38;;;;;;;8.75;2.30;;;12.90;99.90;;;;;;5070719;28;20093;-72
2023/03/31 12:18:19;;;;;;;7.78;2.95;;;12.90;99.90;;;;;;5050403;28;20044;-72
2023/03/31 12:20:58;;;;;;;6.60;1.85;;;12.90;99.90;;;;;;5053910;28;20052;-72
2023/03/31 12:23:27;;;;;;;7.13;2.03;;;12.90;99.90;;;;;;5054458;28;20114;-72
2023/03/31 12:26:01;;;;;;;7.50;2.30;;;12.90;99.90;;;;;;5064812;28;20115;-72
2023/03/31 12:28:30;;;;;;;7.13;2.25;;;12.90;99.90;;;;;;5059493;28;20054;-72
2023/03/31 12:30:57;;;;;;;7.18;2.03;;;12.90;99.90;;;;;;5061720;28;20072;-72
2023/03/31 12:33:44;;;;;;;9.63;2.22;;;12.80;99.90;;;;;;5069825;28;20040;-72
2023/03/31 12:36:33;;;;;;;8.68;2.40;;;12.90;99.90;;;;;;5036576;28;20033;-72
2023/03/31 12:39:32;;;;;;;9.35;3.30;;;12.90;99.90;;;;;;5050089;28;20432;-72
2023/03/31 12:42:13;;;;;;;9.63;2.63;;;12.80;99.90;;;;;;5051524;28;20378;-72
2023/03/31 12:45:09;;;;;;;9.85;2.25;;;12.90;99.90;;;;;;5055820;28;20045;-72
2023/03/31 12:48:03;;;;;;;7.22;2.47;;;13.00;99.90;;;;;;5052391;28;20162;-72
2023/03/31 12:50:29;;;;;;;7.80;2.20;;;13.30;99.90;;;;;;5046214;28;20052;-72
2023/03/31 12:53:04;;;;;;;8.63;2.53;;;13.30;99.90;;;;;;5063075;28;20048;-72
2023/03/31 12:55:57;;;;;;;10.52;2.63;;;13.50;99.90;;;;;;5063159;28;20045;-72
2023/03/31 12:58:25;;;;;;;;;;;13.40;99.90;;;;;;5051945;28;20045;-72
2023/03/31 13:01:03;;;;;;;9.38;2.58;;;13.40;99.90;;;;;;5087622;28;19963;-72
2023/03/31 13:04:03;;;;;;;8.15;2.42;;;13.40;99.90;;;;;;5078442;28;20059;-72
2023/03/31 13:06:28;;;;;;;8.93;2.33;;;13.50;99.90;;;;;;5051989;28;20072;-72
2023/03/31 13:08:57;;;;;;;8.65;2.20;;;13.50;99.90;;;;;;5068422;28;20079;-73